createdAt,value
2018-09-08T00:01:07.425Z,4.00
2018-09-08T00:03:36.574Z,4.30
2018-09-08T00:06:05.702Z,3.97
2018-09-08T00:08:34.858Z,3.97
2018-09-08T00:11:03.986Z,4.12
2018-09-08T00:13:33.161Z,3.67
2018-09-08T00:16:07.527Z,3.53
2018-09-08T00:18:41.975Z,4.20
2018-09-08T00:21:16.403Z,3.80
2018-09-08T00:23:50.910Z,3.20
2018-09-08T00:26:25.438Z,3.27
2018-09-08T00:28:58.461Z,3.40
2018-09-08T00:31:27.594Z,3.60
2018-09-08T00:33:56.733Z,3.43
2018-09-08T00:36:25.877Z,3.70
2018-09-08T00:38:55.050Z,4.13
2018-09-08T00:41:24.931Z,3.13
2018-09-08T00:43:54.234Z,3.17
2018-09-08T00:46:23.375Z,3.20
2018-09-08T00:48:52.534Z,3.30
2018-09-08T00:51:21.766Z,3.55
2018-09-08T00:53:50.909Z,3.67
2018-09-08T00:56:20.046Z,3.83
2018-09-08T00:58:54.378Z,3.53
2018-09-08T01:01:23.535Z,3.47
2018-09-08T01:03:52.757Z,3.57
2018-09-08T01:06:21.834Z,3.77
2018-09-08T01:08:50.971Z,3.83
2018-09-08T01:11:20.123Z,3.80
2018-09-08T01:13:49.279Z,3.80
2018-09-08T01:16:19.059Z,3.67
2018-09-08T01:18:48.235Z,3.23
2018-09-08T01:21:17.398Z,3.43
2018-09-08T01:23:50.282Z,3.63
2018-09-08T01:26:20.251Z,3.53
2018-09-08T01:28:50.263Z,3.53
2018-09-08T01:31:19.671Z,3.50
2018-09-08T01:33:48.823Z,3.83
2018-09-08T01:36:17.971Z,3.50
2018-09-08T01:38:47.135Z,3.42
2018-09-08T01:41:16.362Z,3.57
2018-09-08T01:43:45.511Z,3.63
2018-09-08T01:46:14.663Z,3.53
2018-09-08T01:48:43.811Z,4.10
2018-09-08T01:51:12.954Z,3.60
2018-09-08T01:53:43.424Z,3.77
2018-09-08T01:56:12.567Z,3.50
2018-09-08T01:58:41.725Z,3.60
2018-09-08T02:01:11.003Z,3.60
2018-09-08T02:03:40.139Z,3.80
2018-09-08T02:06:09.292Z,3.43
2018-09-08T02:08:38.437Z,3.70
2018-09-08T02:11:07.972Z,3.43
2018-09-08T02:13:37.120Z,3.37
2018-09-08T02:16:06.469Z,3.47
2018-09-08T02:18:36.223Z,3.50
2018-09-08T02:21:07.087Z,3.33
2018-09-08T02:23:36.610Z,3.47
2018-09-08T02:26:07.011Z,3.77
2018-09-08T02:28:37.268Z,2.95
2018-09-08T02:31:07.234Z,3.90
2018-09-08T02:33:37.344Z,3.72
2018-09-08T02:36:07.752Z,3.87
2018-09-08T02:38:37.952Z,3.62
2018-09-08T02:41:08.080Z,3.80
2018-09-08T02:43:38.252Z,3.85
2018-09-08T02:49:24.719Z,3.67
2018-09-08T02:51:52.494Z,3.43
2018-09-08T02:54:20.175Z,3.57
2018-09-08T02:56:47.859Z,3.20
2018-09-08T02:59:15.532Z,3.33
2018-09-08T03:01:43.231Z,3.63
2018-09-08T03:04:10.907Z,3.33
2018-09-08T03:06:38.596Z,3.30
2018-09-08T03:09:06.923Z,3.80
2018-09-08T03:11:34.618Z,3.20
2018-09-08T03:14:02.328Z,3.00
2018-09-08T03:16:30.012Z,3.37
2018-09-08T03:18:57.695Z,3.50
2018-09-08T03:21:25.406Z,3.63
2018-09-08T03:23:53.089Z,3.27
2018-09-08T03:26:20.771Z,3.20
2018-09-08T03:28:48.479Z,3.90
2018-09-08T03:31:16.160Z,3.20
2018-09-08T03:33:43.836Z,3.45
2018-09-08T03:36:11.522Z,3.30
2018-09-08T03:38:39.211Z,3.40
2018-09-08T03:41:08.127Z,3.60
2018-09-08T03:43:35.806Z,3.30
2018-09-08T03:46:03.518Z,2.93
2018-09-08T03:48:31.190Z,3.30
2018-09-08T03:50:58.864Z,3.12
2018-09-08T03:53:26.546Z,2.97
2018-09-08T03:55:54.227Z,3.50
2018-09-08T03:58:21.919Z,3.02
2018-09-08T04:00:49.603Z,2.87
2018-09-08T04:03:18.800Z,3.42
2018-09-08T04:05:48.739Z,3.20
2018-09-08T04:08:17.928Z,2.87
2018-09-08T04:10:47.119Z,3.20
2018-09-08T04:13:16.315Z,3.30
2018-09-08T04:15:45.590Z,3.30
2018-09-08T04:18:14.990Z,3.37
2018-09-08T04:20:44.468Z,3.17
2018-09-08T04:23:14.461Z,3.25
2018-09-08T04:25:43.655Z,3.17
2018-09-08T04:28:13.256Z,3.13
2018-09-08T04:30:42.442Z,3.00
2018-09-08T04:33:12.003Z,3.00
2018-09-08T04:35:41.192Z,3.33
2018-09-08T04:38:10.394Z,3.13
2018-09-08T04:40:39.579Z,3.40
2018-09-08T04:43:08.911Z,3.20
2018-09-08T04:45:38.087Z,3.08
2018-09-08T04:48:07.280Z,3.10
2018-09-08T04:50:36.463Z,2.90
2018-09-08T04:53:05.791Z,3.20
2018-09-08T04:55:34.980Z,2.80
2018-09-08T04:58:04.163Z,2.83
2018-09-08T05:00:33.447Z,2.83
2018-09-08T05:03:02.755Z,3.00
2018-09-08T05:05:31.949Z,2.70
2018-09-08T05:08:01.187Z,2.43
2018-09-08T05:10:30.369Z,2.97
2018-09-08T05:12:59.559Z,2.83
2018-09-08T05:15:28.721Z,2.60
2018-09-08T05:17:57.903Z,2.30
2018-09-08T05:20:27.075Z,2.53
2018-09-08T05:22:56.259Z,2.70
2018-09-08T05:25:25.444Z,2.43
2018-09-08T05:27:54.627Z,2.47
2018-09-08T05:30:23.824Z,2.27
2018-09-08T05:32:52.998Z,3.35
2018-09-08T05:35:22.174Z,3.07
2018-09-08T05:37:51.376Z,2.80
2018-09-08T05:40:20.539Z,3.10
2018-09-08T05:42:49.755Z,2.77
2018-09-08T05:45:18.934Z,3.23
2018-09-08T05:47:48.146Z,3.53
2018-09-08T05:50:17.448Z,3.62
2018-09-08T05:52:48.495Z,3.40
2018-09-08T05:55:17.708Z,3.27
2018-09-08T05:57:47.691Z,3.33
2018-09-08T06:00:17.784Z,3.30
2018-09-08T06:02:47.866Z,3.40
2018-09-08T06:05:18.104Z,3.22
2018-09-08T06:07:48.275Z,3.40
2018-09-08T06:10:18.106Z,3.20
2018-09-08T06:12:48.329Z,3.35
2018-09-08T06:15:18.293Z,3.20
2018-09-08T06:17:48.441Z,4.08
2018-09-08T06:20:18.459Z,3.22
2018-09-08T06:22:48.623Z,3.40
2018-09-08T06:25:19.560Z,2.84
2018-09-08T06:27:48.749Z,3.13
2018-09-08T06:30:18.752Z,3.17
2018-09-08T06:32:48.847Z,3.30
2018-09-08T06:35:19.084Z,3.25
2018-09-08T06:37:49.024Z,3.23
2018-09-08T06:40:19.142Z,3.20
2018-09-08T06:42:49.182Z,3.52
2018-09-08T06:45:19.393Z,3.80
2018-09-08T06:47:49.322Z,3.85
2018-09-08T06:50:19.542Z,3.02
2018-09-08T06:52:49.572Z,2.60
2018-09-08T06:55:19.646Z,2.60
2018-09-08T06:57:49.726Z,2.40
2018-09-08T07:00:20.532Z,2.60
2018-09-08T07:02:50.907Z,2.44
2018-09-08T07:05:20.104Z,2.70
2018-09-08T07:07:50.125Z,2.27
2018-09-08T07:10:21.080Z,2.04
2018-09-08T07:12:50.271Z,2.40
2018-09-08T07:15:20.248Z,2.05
2018-09-08T07:17:50.438Z,1.72
2018-09-08T07:20:20.475Z,2.00
2018-09-08T07:22:50.582Z,1.98
2018-09-08T07:25:20.656Z,1.90
2018-09-08T07:27:50.719Z,1.60
2018-09-08T07:30:20.848Z,2.00
2018-09-08T07:32:52.117Z,2.00
2018-09-08T07:35:21.299Z,1.87
2018-09-08T07:37:51.090Z,2.00
2018-09-08T07:40:21.220Z,1.92
2018-09-08T07:42:51.331Z,2.00
2018-09-08T07:45:21.342Z,1.67
2018-09-08T07:47:50.527Z,1.47
2018-09-08T07:50:19.791Z,1.87
2018-09-08T07:52:48.988Z,1.80
2018-09-08T07:55:18.339Z,1.60
2018-09-08T07:57:47.559Z,1.80
2018-09-08T08:00:16.739Z,1.70
2018-09-08T08:02:45.935Z,2.20
2018-09-08T08:05:15.195Z,1.80
2018-09-08T08:07:44.367Z,1.62
2018-09-08T08:10:15.701Z,1.47
2018-09-08T08:12:44.877Z,1.60
2018-09-08T08:15:14.159Z,1.62
2018-09-08T08:17:43.523Z,1.27
2018-09-08T08:20:12.716Z,1.13
2018-09-08T08:22:41.906Z,1.27
2018-09-08T08:25:11.167Z,1.47
2018-09-08T08:27:40.367Z,1.30
2018-09-08T08:30:09.569Z,1.30
2018-09-08T08:32:38.769Z,1.35
2018-09-08T08:35:08.039Z,1.50
2018-09-08T08:37:37.208Z,1.43
2018-09-08T08:40:06.384Z,1.87
2018-09-08T08:42:35.555Z,1.27
2018-09-08T08:45:04.808Z,1.67
2018-09-08T08:47:34.008Z,1.30
2018-09-08T08:50:20.371Z,1.43
2018-09-08T08:53:06.673Z,1.20
2018-09-08T08:55:35.909Z,1.20
2018-09-08T08:58:05.236Z,2.27
2018-09-08T09:00:34.385Z,1.47
2018-09-08T09:03:03.566Z,1.33
2018-09-08T09:05:32.794Z,1.30
2018-09-08T09:08:01.980Z,1.10
2018-09-08T09:10:32.168Z,1.00
2018-09-08T09:13:02.461Z,1.40
2018-09-08T09:15:32.878Z,1.25
2018-09-08T09:18:03.612Z,1.24
2018-09-08T09:20:51.208Z,1.13
2018-09-08T09:25:03.225Z,1.10
2018-09-08T09:27:34.259Z,1.10
2018-09-08T09:30:03.967Z,1.03
2018-09-08T09:32:34.927Z,1.30
2018-09-08T09:35:04.159Z,1.70
2018-09-08T09:37:33.980Z,1.95
2018-09-08T09:40:03.349Z,1.63
2018-09-08T09:42:32.577Z,1.50
2018-09-08T09:45:01.939Z,1.20
2018-09-08T09:47:31.371Z,1.10
2018-09-08T09:50:00.545Z,1.30
2018-09-08T09:52:29.754Z,5.37
2018-09-08T09:54:58.951Z,2.43
2018-09-08T09:57:28.259Z,1.40
2018-09-08T10:00:01.294Z,1.10
2018-09-08T10:02:39.794Z,1.40
2018-09-08T10:05:14.491Z,1.35
2018-09-08T10:07:43.779Z,1.40
2018-09-08T10:10:14.601Z,1.40
2018-09-08T10:12:44.317Z,1.20
2018-09-08T10:15:13.517Z,1.40
2018-09-08T10:17:43.559Z,1.37
2018-09-08T10:20:15.346Z,1.50
2018-09-08T10:22:44.576Z,2.30
2018-09-08T10:25:15.932Z,1.95
2018-09-08T10:27:46.250Z,7.07
2018-09-08T10:30:16.035Z,1.70
2018-09-08T10:32:45.876Z,1.20
2018-09-08T10:35:15.320Z,7.25
2018-09-08T10:37:44.519Z,3.33
2018-09-08T10:40:14.300Z,1.67
2018-09-08T10:42:43.648Z,1.30
2018-09-08T10:45:12.830Z,1.43
2018-09-08T10:47:42.143Z,1.30
2018-09-08T10:50:12.032Z,1.80
2018-09-08T10:52:47.376Z,1.60
2018-09-08T10:55:16.552Z,1.40
2018-09-08T10:57:45.735Z,1.37
2018-09-08T11:00:15.871Z,2.60
2018-09-08T11:02:45.363Z,1.40
2018-09-08T11:05:14.352Z,1.60
2018-09-08T11:07:43.527Z,1.57
2018-09-08T11:10:12.748Z,1.75
2018-09-08T11:12:41.932Z,1.53
2018-09-08T11:15:11.418Z,1.67
2018-09-08T11:17:40.656Z,1.47
2018-09-08T11:23:12.667Z,1.40
2018-09-08T11:25:41.819Z,1.40
2018-09-08T11:28:10.975Z,1.40
2018-09-08T11:30:40.175Z,1.40
2018-09-08T11:33:09.259Z,1.40
2018-09-08T11:35:38.436Z,1.50
2018-09-08T11:38:07.651Z,1.93
2018-09-08T11:40:36.847Z,1.50
2018-09-08T11:43:06.115Z,1.53
2018-09-08T11:45:35.264Z,1.47
2018-09-08T11:48:04.406Z,1.30
2018-09-08T11:50:34.241Z,1.22
2018-09-08T11:53:03.394Z,1.63
2018-09-08T11:55:32.611Z,1.50
2018-09-08T11:58:02.018Z,1.40
2018-09-08T12:00:31.227Z,1.30
2018-09-08T12:03:00.441Z,1.20
2018-09-08T12:05:29.527Z,1.25
2018-09-08T12:07:59.546Z,1.54
2018-09-08T12:10:28.668Z,1.50
2018-09-08T12:12:57.821Z,1.32
2018-09-08T12:15:27.006Z,1.50
2018-09-08T12:17:56.115Z,1.77
2018-09-08T12:20:25.254Z,1.63
2018-09-08T12:22:54.534Z,1.60
2018-09-08T12:25:23.684Z,1.57
2018-09-08T12:27:52.819Z,1.60
2018-09-08T12:30:22.639Z,1.57
2018-09-08T12:32:52.523Z,1.63
2018-09-08T12:35:22.607Z,1.70
2018-09-08T12:37:52.722Z,1.67
2018-09-08T12:40:22.755Z,1.90
2018-09-08T12:42:52.859Z,1.47
2018-09-08T12:45:22.875Z,1.75
2018-09-08T12:47:53.007Z,1.30
2018-09-08T12:50:23.025Z,1.70
2018-09-08T12:52:52.995Z,1.60
2018-09-08T12:55:23.087Z,1.70
2018-09-08T12:57:53.175Z,1.62
2018-09-08T13:00:22.428Z,1.43
2018-09-08T13:02:54.285Z,1.60
2018-09-08T13:05:23.507Z,1.90
2018-09-08T13:07:53.439Z,1.87
2018-09-08T13:10:23.463Z,1.65
2018-09-08T13:12:53.584Z,1.80
2018-09-08T13:15:24.070Z,2.10
2018-09-08T13:17:53.967Z,1.72
2018-09-08T13:20:24.700Z,1.70
2018-09-08T13:22:53.924Z,1.63
2018-09-08T13:25:23.879Z,1.85
2018-09-08T13:27:53.946Z,2.00
2018-09-08T13:30:23.926Z,1.70
2018-09-08T13:32:54.068Z,1.70
2018-09-08T13:35:24.131Z,1.27
2018-09-08T13:37:54.148Z,1.95
2018-09-08T13:40:24.195Z,1.80
2018-09-08T13:42:54.303Z,1.80
2018-09-08T13:45:24.431Z,1.60
2018-09-08T13:47:54.391Z,1.70
2018-09-08T13:50:24.583Z,1.60
2018-09-08T13:52:54.590Z,1.70
2018-09-08T13:55:24.710Z,1.80
2018-09-08T13:57:54.726Z,1.70
2018-09-08T14:00:24.839Z,1.77
2018-09-08T14:02:54.847Z,1.60
2018-09-08T14:05:24.870Z,1.70
2018-09-08T14:07:57.390Z,1.77
2018-09-08T14:10:26.603Z,1.67
2018-09-08T14:12:55.747Z,1.70
2018-09-08T14:15:25.202Z,1.87
2018-09-08T14:17:55.261Z,1.75
2018-09-08T14:20:25.379Z,1.87
2018-09-08T14:22:55.454Z,1.70
2018-09-08T14:25:25.515Z,1.60
2018-09-08T14:27:55.526Z,2.12
2018-09-08T14:30:28.953Z,2.30
2018-09-08T14:32:58.095Z,1.70
2018-09-08T14:35:27.363Z,1.93
2018-09-08T14:37:56.675Z,2.10
2018-09-08T14:40:25.979Z,1.60
2018-09-08T14:42:56.002Z,2.02
2018-09-08T14:45:26.327Z,1.98
2018-09-08T14:47:56.137Z,2.45
2018-09-08T14:50:26.224Z,2.08
2018-09-08T14:52:56.216Z,1.70
2018-09-08T14:55:26.479Z,1.95
2018-09-08T14:57:56.366Z,1.80
2018-09-08T15:00:26.445Z,1.60
2018-09-08T15:02:56.742Z,1.62
2018-09-08T15:05:26.819Z,1.90
2018-09-08T15:07:56.703Z,1.60
2018-09-08T15:10:26.772Z,1.57
2018-09-08T15:12:56.794Z,1.65
2018-09-08T15:15:26.835Z,2.83
2018-09-08T15:17:56.903Z,2.27
2018-09-08T15:20:27.120Z,1.80
2018-09-08T15:22:57.111Z,2.40
2018-09-08T15:25:27.111Z,2.00
2018-09-08T15:27:57.238Z,2.20
2018-09-08T15:30:27.268Z,2.03
2018-09-08T15:32:57.445Z,1.47
2018-09-08T15:35:27.508Z,1.70
2018-09-08T15:37:57.515Z,2.15
2018-09-08T15:40:27.531Z,1.87
2018-09-08T15:42:57.692Z,1.87
2018-09-08T15:45:27.781Z,2.30
2018-09-08T15:47:57.799Z,2.00
2018-09-08T15:50:28.139Z,2.10
2018-09-08T15:52:57.907Z,2.40
2018-09-08T15:55:28.052Z,2.98
2018-09-08T15:57:58.009Z,2.33
2018-09-08T16:00:28.123Z,2.17
2018-09-08T16:02:58.191Z,1.87
2018-09-08T16:05:27.352Z,1.83
2018-09-08T16:07:56.520Z,2.20
2018-09-08T16:10:25.707Z,1.70
2018-09-08T16:12:54.984Z,1.33
2018-09-08T16:15:24.094Z,1.42
2018-09-08T16:17:53.254Z,1.70
2018-09-08T16:20:22.441Z,1.70
2018-09-08T16:22:51.659Z,2.50
2018-09-08T16:25:20.808Z,2.50
2018-09-08T16:27:50.021Z,2.70
2018-09-08T16:30:19.288Z,2.20
2018-09-08T16:32:48.524Z,1.73
2018-09-08T16:35:17.688Z,2.67
2018-09-08T16:37:46.954Z,2.30
2018-09-08T16:40:16.104Z,2.57
2018-09-08T16:42:45.267Z,2.10
2018-09-08T16:45:14.427Z,1.90
2018-09-08T16:47:43.651Z,1.77
2018-09-08T16:50:12.825Z,2.00
2018-09-08T16:52:42.170Z,2.17
2018-09-08T16:55:11.288Z,1.80
2018-09-08T16:57:40.476Z,2.05
2018-09-08T17:00:09.639Z,1.65
2018-09-08T17:02:38.835Z,1.80
2018-09-08T17:05:08.159Z,1.52
2018-09-08T17:07:37.184Z,1.80
2018-09-08T17:10:07.091Z,1.62
2018-09-08T17:12:36.263Z,1.50
2018-09-08T17:15:05.980Z,2.08
2018-09-08T17:17:35.179Z,1.40
2018-09-08T17:20:04.391Z,1.57
2018-09-08T17:22:33.602Z,1.77
2018-09-08T17:25:03.348Z,1.60
2018-09-08T17:27:33.471Z,1.60
2018-09-08T17:30:03.619Z,1.60
2018-09-08T17:32:33.693Z,1.50
2018-09-08T17:35:03.877Z,1.72
2018-09-08T17:37:36.025Z,1.57
2018-09-08T17:40:05.420Z,1.47
2018-09-08T17:42:34.684Z,1.70
2018-09-08T17:47:47.930Z,1.60
2018-09-08T17:50:17.092Z,1.72
2018-09-08T17:52:46.310Z,8.30
2018-09-08T17:55:15.515Z,4.17
2018-09-08T17:57:44.985Z,4.75
2018-09-08T18:00:14.592Z,2.37
2018-09-08T18:02:43.801Z,3.80
2018-09-08T18:05:13.204Z,4.30
2018-09-08T18:07:42.463Z,2.90
2018-09-08T18:10:12.682Z,7.00
2018-09-08T18:12:41.965Z,5.90
2018-09-08T18:15:11.403Z,3.20
2018-09-08T18:17:40.572Z,3.60
2018-09-08T18:20:09.752Z,3.62
2018-09-08T18:22:38.925Z,3.10
2018-09-08T18:25:08.313Z,2.57
2018-09-08T18:27:37.547Z,2.62
2018-09-08T18:30:07.871Z,2.00
2018-09-08T18:32:37.088Z,2.03
2018-09-08T18:35:06.739Z,1.62
2018-09-08T18:37:35.998Z,2.03
2018-09-08T18:40:06.310Z,1.98
2018-09-08T18:42:36.112Z,2.05
2018-09-08T18:45:06.171Z,2.08
2018-09-08T18:47:36.290Z,2.10
2018-09-08T18:50:06.436Z,2.00
2018-09-08T18:52:36.639Z,1.72
2018-09-08T18:55:06.621Z,1.94
2018-09-08T18:57:35.895Z,1.87
2018-09-08T19:00:05.196Z,2.00
2018-09-08T19:02:35.400Z,2.00
2018-09-08T19:05:04.659Z,1.83
2018-09-08T19:07:34.918Z,1.72
2018-09-08T19:10:06.152Z,2.10
2018-09-08T19:12:36.367Z,1.90
2018-09-08T19:15:10.897Z,1.40
2018-09-08T19:17:40.091Z,1.80
2018-09-08T19:20:16.003Z,1.40
2018-09-08T19:22:45.231Z,1.90
2018-09-08T19:25:14.435Z,1.62
2018-09-08T19:27:43.679Z,1.92
2018-09-08T19:30:12.969Z,1.80
2018-09-08T19:32:42.165Z,2.08
2018-09-08T19:35:16.661Z,1.65
2018-09-08T19:37:45.967Z,2.20
2018-09-08T19:40:20.572Z,5.37
2018-09-08T19:42:58.474Z,3.00
2018-09-08T19:45:27.684Z,1.90
2018-09-08T19:48:02.292Z,2.13
2018-09-08T19:50:31.583Z,1.90
2018-09-08T19:53:06.099Z,1.90
2018-09-08T19:55:35.359Z,1.90
2018-09-08T19:58:09.931Z,1.93
2018-09-08T20:00:39.127Z,2.00
2018-09-08T20:03:08.988Z,2.30
2018-09-08T20:05:39.100Z,1.90
2018-09-08T20:08:09.186Z,2.28
2018-09-08T20:10:38.385Z,2.20
2018-09-08T20:13:07.563Z,2.10
2018-09-08T20:15:37.067Z,2.07
2018-09-08T20:18:06.234Z,2.30
2018-09-08T20:20:35.419Z,2.43
2018-09-08T20:23:04.603Z,2.50
2018-09-08T20:25:33.883Z,2.40
2018-09-08T20:28:03.053Z,2.63
2018-09-08T20:30:32.324Z,2.50
2018-09-08T20:33:01.579Z,2.73
2018-09-08T20:35:30.827Z,2.57
2018-09-08T20:38:01.264Z,2.83
2018-09-08T20:40:30.455Z,2.37
2018-09-08T20:43:00.887Z,2.10
2018-09-08T20:45:30.148Z,2.27
2018-09-08T20:47:59.335Z,2.30
2018-09-08T20:50:28.508Z,2.12
2018-09-08T20:52:57.674Z,2.20
2018-09-08T20:55:26.851Z,2.20
2018-09-08T20:57:56.051Z,1.97
2018-09-08T21:00:25.227Z,2.10
2018-09-08T21:02:54.459Z,2.30
2018-09-08T21:05:24.668Z,2.50
2018-09-08T21:07:53.840Z,2.50
2018-09-08T21:10:23.013Z,2.25
2018-09-08T21:12:52.207Z,2.87
2018-09-08T21:15:21.384Z,2.10
2018-09-08T21:17:50.568Z,2.53
2018-09-08T21:20:19.749Z,2.50
2018-09-08T21:22:48.923Z,2.83
2018-09-08T21:25:18.149Z,2.80
2018-09-08T21:27:47.509Z,3.08
2018-09-08T21:30:16.516Z,3.15
2018-09-08T21:32:46.227Z,3.80
2018-09-08T21:35:15.446Z,3.40
2018-09-08T21:37:44.819Z,4.07
2018-09-08T21:40:14.023Z,3.83
2018-09-08T21:42:43.184Z,4.00
2018-09-08T21:45:13.111Z,3.55
2018-09-08T21:47:43.367Z,2.95
2018-09-08T21:50:13.448Z,2.90
2018-09-08T21:52:43.527Z,3.22
2018-09-08T21:55:13.517Z,3.00
2018-09-08T21:57:43.755Z,2.90
2018-09-08T22:00:13.783Z,2.88
2018-09-08T22:02:42.982Z,2.60
2018-09-08T22:05:12.154Z,2.30
2018-09-08T22:07:41.375Z,2.70
2018-09-08T22:10:10.535Z,2.30
2018-09-08T22:12:39.722Z,2.83
2018-09-08T22:15:08.888Z,1.83
2018-09-08T22:17:38.171Z,2.10
2018-09-08T22:20:07.339Z,2.10
2018-09-08T22:22:36.535Z,2.37
2018-09-08T22:25:05.707Z,2.20
2018-09-08T22:27:34.979Z,2.43
2018-09-08T22:30:04.136Z,2.10
2018-09-08T22:32:33.303Z,2.10
2018-09-08T22:35:02.468Z,1.73
2018-09-08T22:37:31.643Z,2.00
2018-09-08T22:40:01.188Z,2.10
2018-09-08T22:42:30.423Z,2.17
2018-09-08T22:44:59.615Z,2.43
2018-09-08T22:47:28.883Z,2.00
2018-09-08T22:49:58.060Z,2.47
2018-09-08T22:52:27.244Z,2.30
2018-09-08T22:54:56.502Z,2.23
2018-09-08T22:57:25.679Z,2.35
2018-09-08T22:59:54.840Z,2.30
2018-09-08T23:02:24.014Z,2.40
2018-09-08T23:04:53.174Z,2.57
2018-09-08T23:07:22.370Z,2.75
2018-09-08T23:09:51.947Z,2.60
2018-09-08T23:12:21.491Z,2.80
2018-09-08T23:14:52.136Z,3.20
2018-09-08T23:17:21.631Z,3.40
2018-09-08T23:19:51.303Z,4.43
2018-09-08T23:22:21.091Z,5.97
2018-09-08T23:24:50.427Z,4.83
2018-09-08T23:27:19.975Z,3.70
2018-09-08T23:29:49.186Z,3.30
2018-09-08T23:32:18.390Z,3.00
2018-09-08T23:34:47.871Z,2.47
2018-09-08T23:37:17.861Z,2.60
2018-09-08T23:39:47.978Z,3.10
2018-09-08T23:42:18.095Z,2.80
2018-09-08T23:44:48.216Z,3.10
2018-09-08T23:47:18.244Z,3.00
2018-09-08T23:49:48.523Z,2.90
2018-09-08T23:52:18.463Z,2.92
2018-09-08T23:54:48.619Z,2.77
2018-09-08T23:57:18.720Z,3.60
2018-09-08T23:59:48.859Z,3.15
